createdAt,value
2017-08-05T00:01:08.585Z,9.90
2017-08-05T00:03:36.323Z,9.30
2017-08-05T00:06:04.066Z,8.73
2017-08-05T00:08:31.783Z,8.00
2017-08-05T00:10:59.511Z,10.43
2017-08-05T00:13:27.971Z,11.33
2017-08-05T00:15:55.695Z,10.83
2017-08-05T00:18:23.409Z,10.30
2017-08-05T00:20:51.130Z,10.23
2017-08-05T00:23:18.866Z,9.40
2017-08-05T00:25:46.564Z,10.13
2017-08-05T00:28:14.314Z,9.70
2017-08-05T00:30:42.039Z,8.90
2017-08-05T00:33:09.763Z,7.80
2017-08-05T00:35:37.491Z,8.40
2017-08-05T00:38:05.258Z,8.20
2017-08-05T00:40:32.977Z,8.67
2017-08-05T00:43:00.699Z,9.20
2017-08-05T00:45:29.353Z,8.17
2017-08-05T00:47:57.079Z,9.73
2017-08-05T00:50:24.799Z,8.47
2017-08-05T00:52:52.515Z,8.70
2017-08-05T00:55:20.246Z,7.90
2017-08-05T00:57:47.964Z,7.93
2017-08-05T01:00:15.711Z,8.90
2017-08-05T01:02:43.439Z,8.37
2017-08-05T01:05:11.179Z,8.37
2017-08-05T01:07:39.679Z,8.53
2017-08-05T01:10:07.394Z,7.50
2017-08-05T01:12:35.379Z,7.97
2017-08-05T01:15:03.135Z,8.33
2017-08-05T01:17:31.876Z,7.77
2017-08-05T01:19:59.607Z,8.43
2017-08-05T01:22:28.102Z,9.23
2017-08-05T01:24:55.838Z,9.23
2017-08-05T01:27:23.546Z,8.97
2017-08-05T01:29:51.283Z,9.20
2017-08-05T01:32:19.025Z,9.13
2017-08-05T01:34:46.791Z,9.50
2017-08-05T01:37:15.291Z,9.90
2017-08-05T01:39:43.035Z,9.83
2017-08-05T01:42:10.779Z,9.90
2017-08-05T01:44:38.520Z,10.33
2017-08-05T01:47:06.319Z,11.07
2017-08-05T01:49:34.707Z,10.37
2017-08-05T01:52:02.472Z,9.33
2017-08-05T01:54:30.215Z,9.83
2017-08-05T01:56:57.998Z,8.63
2017-08-05T01:59:25.764Z,8.93
2017-08-05T02:01:53.515Z,9.37
2017-08-05T02:04:21.271Z,9.00
2017-08-05T02:06:49.001Z,9.17
2017-08-05T02:09:16.752Z,9.43
2017-08-05T02:11:44.490Z,10.07
2017-08-05T02:14:12.265Z,9.00
2017-08-05T02:16:40.013Z,9.53
2017-08-05T02:19:07.735Z,8.07
2017-08-05T02:21:36.459Z,8.93
2017-08-05T02:24:04.187Z,9.23
2017-08-05T02:26:31.915Z,8.87
2017-08-05T02:28:59.656Z,8.70
2017-08-05T02:31:27.381Z,9.23
2017-08-05T02:33:55.108Z,9.43
2017-08-05T02:36:22.822Z,8.67
2017-08-05T02:38:50.551Z,8.10
2017-08-05T02:41:18.295Z,8.13
2017-08-05T02:43:46.006Z,8.50
2017-08-05T02:46:13.751Z,8.73
2017-08-05T02:48:41.484Z,8.53
2017-08-05T02:51:09.234Z,7.53
2017-08-05T02:53:37.567Z,7.70
2017-08-05T02:56:05.326Z,8.30
2017-08-05T02:58:33.238Z,8.00
2017-08-05T03:01:00.962Z,7.63
2017-08-05T03:03:28.695Z,8.37
2017-08-05T03:05:56.419Z,8.87
2017-08-05T03:08:24.131Z,8.37
2017-08-05T03:10:51.864Z,8.67
2017-08-05T03:13:19.615Z,8.80
2017-08-05T03:15:47.341Z,9.10
2017-08-05T03:18:15.064Z,10.57
2017-08-05T03:20:42.790Z,10.13
2017-08-05T03:23:10.530Z,10.17
2017-08-05T03:25:38.278Z,9.70
2017-08-05T03:28:06.008Z,9.00
2017-08-05T03:30:33.803Z,8.90
2017-08-05T03:33:01.538Z,10.13
2017-08-05T03:35:29.950Z,10.03
2017-08-05T03:37:57.696Z,10.07
2017-08-05T03:40:25.422Z,10.13
2017-08-05T03:42:53.144Z,10.67
2017-08-05T03:45:20.883Z,11.50
2017-08-05T03:47:48.626Z,11.27
2017-08-05T03:50:16.362Z,12.80
2017-08-05T03:52:45.007Z,14.63
2017-08-05T03:55:12.739Z,16.70
2017-08-05T03:57:40.495Z,15.93
2017-08-05T04:00:09.030Z,16.17
2017-08-05T04:02:36.751Z,16.83
2017-08-05T04:05:05.242Z,19.67
2017-08-05T04:07:32.964Z,18.10
2017-08-05T04:10:00.697Z,16.57
2017-08-05T04:12:28.431Z,14.03
2017-08-05T04:14:56.171Z,12.57
2017-08-05T04:17:24.673Z,11.53
2017-08-05T04:19:52.389Z,10.47
2017-08-05T04:22:20.129Z,9.27
2017-08-05T04:24:47.870Z,9.73
2017-08-05T04:27:15.595Z,9.70
2017-08-05T04:29:44.083Z,9.77
2017-08-05T04:32:13.175Z,10.40
2017-08-05T04:34:40.912Z,10.20
2017-08-05T04:37:08.639Z,10.47
2017-08-05T04:39:36.383Z,10.23
2017-08-05T04:42:04.111Z,9.37
2017-08-05T04:44:31.843Z,8.90
2017-08-05T04:46:59.589Z,10.07
2017-08-05T04:49:27.312Z,9.30
2017-08-05T04:51:55.039Z,10.13
2017-08-05T04:54:22.783Z,9.60
2017-08-05T04:56:50.503Z,9.70
2017-08-05T04:59:18.222Z,9.47
2017-08-05T05:01:46.968Z,10.43
2017-08-05T05:04:14.698Z,9.40
2017-08-05T05:06:42.430Z,10.43
2017-08-05T05:09:10.275Z,9.43
2017-08-05T05:11:38.005Z,8.83
2017-08-05T05:14:05.746Z,8.87
2017-08-05T05:16:33.476Z,8.33
2017-08-05T05:19:01.214Z,8.73
2017-08-05T05:21:29.703Z,8.03
2017-08-05T05:23:57.448Z,7.63
2017-08-05T05:26:25.175Z,8.13
2017-08-05T05:28:52.900Z,8.70
2017-08-05T05:31:20.642Z,8.07
2017-08-05T05:33:49.075Z,7.93
2017-08-05T05:36:16.815Z,7.80
2017-08-05T05:38:44.546Z,8.10
2017-08-05T05:41:13.044Z,7.23
2017-08-05T05:43:40.767Z,6.73
2017-08-05T05:46:08.506Z,9.07
2017-08-05T05:48:36.234Z,8.50
2017-08-05T05:51:03.983Z,8.83
2017-08-05T05:53:31.716Z,8.03
2017-08-05T05:55:59.444Z,8.43
2017-08-05T05:58:27.179Z,8.13
2017-08-05T06:00:55.676Z,7.13
2017-08-05T06:03:23.396Z,7.30
2017-08-05T06:05:51.538Z,8.13
2017-08-05T06:08:19.275Z,7.43
2017-08-05T06:10:46.991Z,7.90
2017-08-05T06:13:14.726Z,8.47
2017-08-05T06:15:42.469Z,7.93
2017-08-05T06:18:10.239Z,7.53
2017-08-05T06:20:37.963Z,7.23
2017-08-05T06:23:05.694Z,7.30
2017-08-05T06:25:33.460Z,7.50
2017-08-05T06:28:01.754Z,7.10
2017-08-05T06:30:29.475Z,8.00
2017-08-05T06:32:57.264Z,8.10
2017-08-05T06:35:25.011Z,7.73
2017-08-05T06:37:52.760Z,8.10
2017-08-05T06:40:20.522Z,8.60
2017-08-05T06:42:48.290Z,8.73
2017-08-05T06:45:16.472Z,7.60
2017-08-05T06:47:44.194Z,7.30
2017-08-05T06:50:11.910Z,7.90
2017-08-05T06:52:39.656Z,7.77
2017-08-05T06:55:07.382Z,7.17
2017-08-05T06:57:35.103Z,7.83
2017-08-05T07:00:02.816Z,8.33
2017-08-05T07:02:30.546Z,7.80
2017-08-05T07:04:58.267Z,8.30
2017-08-05T07:07:26.011Z,7.73
2017-08-05T07:09:54.505Z,7.73
2017-08-05T07:12:22.266Z,8.20
2017-08-05T07:14:50.039Z,8.03
2017-08-05T07:17:17.772Z,8.13
2017-08-05T07:19:45.508Z,7.73
2017-08-05T07:22:13.223Z,7.70
2017-08-05T07:24:40.974Z,8.37
2017-08-05T07:27:09.493Z,8.20
2017-08-05T07:29:37.265Z,8.60
2017-08-05T07:32:06.709Z,7.70
2017-08-05T07:34:34.687Z,7.87
2017-08-05T07:37:03.227Z,7.60
2017-08-05T07:39:30.991Z,8.97
2017-08-05T07:41:58.744Z,8.00
2017-08-05T07:44:26.503Z,8.43
2017-08-05T07:46:54.276Z,8.07
2017-08-05T07:49:22.060Z,8.10
2017-08-05T07:51:49.840Z,8.80
2017-08-05T07:54:17.600Z,8.23
2017-08-05T07:56:45.338Z,7.30
2017-08-05T07:59:14.116Z,8.10
2017-08-05T08:01:41.885Z,8.27
2017-08-05T08:04:09.616Z,8.13
2017-08-05T08:06:37.391Z,7.37
2017-08-05T08:09:05.151Z,8.87
2017-08-05T08:11:32.884Z,8.70
2017-08-05T08:14:00.659Z,7.63
2017-08-05T08:16:28.397Z,8.70
2017-08-05T08:18:56.137Z,8.33
2017-08-05T08:21:23.902Z,8.00
2017-08-05T08:23:51.696Z,7.33
2017-08-05T08:26:19.663Z,8.13
2017-08-05T08:28:47.475Z,12.17
2017-08-05T08:31:15.476Z,7.13
2017-08-05T08:33:43.227Z,7.43
2017-08-05T08:36:25.957Z,8.07
2017-08-05T08:38:53.699Z,7.93
2017-08-05T08:41:21.452Z,7.13
2017-08-05T08:43:49.229Z,6.90
2017-08-05T08:46:16.964Z,8.37
2017-08-05T08:48:46.186Z,7.97
2017-08-05T08:51:13.936Z,7.80
2017-08-05T08:53:41.787Z,7.03
2017-08-05T08:56:10.297Z,8.20
2017-08-05T08:58:38.048Z,7.73
2017-08-05T09:01:05.838Z,7.30
2017-08-05T09:03:33.586Z,7.07
2017-08-05T09:06:01.316Z,7.00
2017-08-05T09:08:29.080Z,7.30
2017-08-05T09:10:57.016Z,7.27
2017-08-05T09:13:24.840Z,7.20
2017-08-05T09:15:52.628Z,6.80
2017-08-05T09:18:20.378Z,6.77
2017-08-05T09:20:48.112Z,6.10
2017-08-05T09:23:16.633Z,7.70
2017-08-05T09:25:45.278Z,7.27
2017-08-05T09:28:13.200Z,6.10
2017-08-05T09:30:41.041Z,6.83
2017-08-05T09:33:08.823Z,7.97
2017-08-05T09:35:36.545Z,7.37
2017-08-05T09:38:04.280Z,10.40
2017-08-05T09:40:32.021Z,6.13
2017-08-05T09:42:59.774Z,6.90
2017-08-05T09:45:27.511Z,6.70
2017-08-05T09:47:55.303Z,6.27
2017-08-05T09:50:23.045Z,6.17
2017-08-05T09:52:50.873Z,6.27
2017-08-05T09:55:18.629Z,5.30
2017-08-05T09:57:46.603Z,6.10
2017-08-05T10:00:14.328Z,5.33
2017-08-05T10:02:42.068Z,5.90
2017-08-05T10:05:09.853Z,5.33
2017-08-05T10:07:37.592Z,5.07
2017-08-05T10:10:06.455Z,5.70
2017-08-05T10:12:34.982Z,5.30
2017-08-05T10:15:02.761Z,4.90
2017-08-05T10:17:30.510Z,6.40
2017-08-05T10:20:00.166Z,5.60
2017-08-05T10:22:27.924Z,5.27
2017-08-05T10:24:55.671Z,5.10
2017-08-05T10:27:23.437Z,4.83
2017-08-05T10:29:52.253Z,5.10
2017-08-05T10:32:20.013Z,5.13
2017-08-05T10:34:48.171Z,5.10
2017-08-05T10:37:15.958Z,5.60
2017-08-05T10:39:43.694Z,5.10
2017-08-05T10:42:12.446Z,4.77
2017-08-05T10:44:40.187Z,4.77
2017-08-05T10:47:07.938Z,5.20
2017-08-05T10:49:35.697Z,5.23
2017-08-05T10:52:04.187Z,5.47
2017-08-05T10:54:31.944Z,14.67
2017-08-05T10:56:59.752Z,5.13
2017-08-05T10:59:27.516Z,4.70
2017-08-05T11:01:55.274Z,5.00
2017-08-05T11:04:24.030Z,4.87
2017-08-05T11:06:51.772Z,4.97
2017-08-05T11:09:19.507Z,4.50
2017-08-05T11:11:47.272Z,4.57
2017-08-05T11:14:15.002Z,4.37
2017-08-05T11:16:42.783Z,4.13
2017-08-05T11:19:10.536Z,4.80
2017-08-05T11:21:38.278Z,4.60
2017-08-05T11:24:07.446Z,4.77
2017-08-05T11:26:35.203Z,4.60
2017-08-05T11:29:02.978Z,4.53
2017-08-05T11:31:30.730Z,4.50
2017-08-05T11:34:00.471Z,4.67
2017-08-05T11:36:29.023Z,4.80
2017-08-05T11:38:56.761Z,4.60
2017-08-05T11:41:24.492Z,4.87
2017-08-05T11:43:54.134Z,4.90
2017-08-05T11:46:21.884Z,6.00
2017-08-05T11:48:49.630Z,6.40
2017-08-05T11:51:17.407Z,4.30
2017-08-05T11:53:46.439Z,4.90
2017-08-05T11:56:14.616Z,4.30
2017-08-05T11:58:43.163Z,5.00
2017-08-05T12:01:11.747Z,4.33
2017-08-05T12:03:40.643Z,5.20
2017-08-05T12:06:08.401Z,5.43
2017-08-05T12:08:36.126Z,4.77
2017-08-05T12:11:04.621Z,5.40
2017-08-05T12:13:32.375Z,6.70
2017-08-05T12:16:00.916Z,5.13
2017-08-05T12:18:29.446Z,5.57
2017-08-05T12:20:57.199Z,5.53
2017-08-05T12:23:25.943Z,4.63
2017-08-05T12:25:53.694Z,5.13
2017-08-05T12:28:21.439Z,4.90
2017-08-05T12:30:49.181Z,5.20
2017-08-05T12:33:16.931Z,5.33
2017-08-05T12:35:44.676Z,5.40
2017-08-05T12:38:12.443Z,4.60
2017-08-05T12:40:40.183Z,5.70
2017-08-05T12:43:07.932Z,6.80
2017-08-05T12:45:35.705Z,4.60
2017-08-05T12:48:04.230Z,5.10
2017-08-05T12:50:33.190Z,4.90
2017-08-05T12:53:00.938Z,4.97
2017-08-05T12:55:28.684Z,4.63
2017-08-05T12:57:56.441Z,5.33
2017-08-05T13:00:24.284Z,6.57
2017-08-05T13:02:52.021Z,4.23
2017-08-05T13:05:20.402Z,4.23
2017-08-05T13:07:48.135Z,4.30
2017-08-05T13:10:15.923Z,5.23
2017-08-05T13:12:43.683Z,4.77
2017-08-05T13:15:11.424Z,4.27
2017-08-05T13:17:39.151Z,4.43
2017-08-05T13:20:06.939Z,4.30
2017-08-05T13:22:35.563Z,4.00
2017-08-05T13:25:03.964Z,4.20
2017-08-05T13:27:32.620Z,4.10
2017-08-05T13:30:00.351Z,4.33
2017-08-05T13:32:28.747Z,4.03
2017-08-05T13:34:56.514Z,4.03
2017-08-05T13:37:24.277Z,3.90
2017-08-05T13:39:52.003Z,4.30
2017-08-05T13:42:20.726Z,4.00
2017-08-05T13:44:48.504Z,3.70
2017-08-05T13:47:16.252Z,3.90
2017-08-05T13:49:44.003Z,4.30
2017-08-05T13:52:11.788Z,5.07
2017-08-05T13:54:39.542Z,4.00
2017-08-05T13:57:07.317Z,4.03
2017-08-05T13:59:35.044Z,3.90
2017-08-05T14:02:02.813Z,4.20
2017-08-05T14:04:30.583Z,4.00
2017-08-05T14:06:58.314Z,3.60
2017-08-05T14:09:26.723Z,3.57
2017-08-05T14:11:54.451Z,4.37
2017-08-05T14:14:22.228Z,3.77
2017-08-05T14:16:49.968Z,3.97
2017-08-05T14:19:17.678Z,3.00
2017-08-05T14:21:45.489Z,4.07
2017-08-05T14:24:13.235Z,4.10
2017-08-05T14:26:41.013Z,3.90
2017-08-05T14:29:08.738Z,3.23
2017-08-05T14:31:37.760Z,3.93
2017-08-05T14:34:05.490Z,3.70
2017-08-05T14:36:33.210Z,3.70
2017-08-05T14:39:00.987Z,3.80
2017-08-05T14:41:29.887Z,3.97
2017-08-05T14:43:58.414Z,4.00
2017-08-05T14:46:26.167Z,3.13
2017-08-05T14:48:53.927Z,4.10
2017-08-05T14:51:21.682Z,3.87
2017-08-05T14:53:49.437Z,3.87
2017-08-05T14:56:17.294Z,4.77
2017-08-05T14:58:45.067Z,4.17
2017-08-05T15:01:12.839Z,3.63
2017-08-05T15:03:40.609Z,3.80
2017-08-05T15:06:17.312Z,4.10
2017-08-05T15:08:45.075Z,4.10
2017-08-05T15:11:16.515Z,4.10
2017-08-05T15:13:44.291Z,3.90
2017-08-05T15:16:12.097Z,3.70
2017-08-05T15:18:39.863Z,4.00
2017-08-05T15:21:10.060Z,4.07
2017-08-05T15:23:37.859Z,3.90
2017-08-05T15:26:06.405Z,4.40
2017-08-05T15:28:34.412Z,3.80
2017-08-05T15:31:02.180Z,4.47
2017-08-05T15:33:30.124Z,4.80
2017-08-05T15:35:58.040Z,4.43
2017-08-05T15:38:25.925Z,4.40
2017-08-05T15:40:54.565Z,4.07
2017-08-05T15:43:22.289Z,3.77
2017-08-05T15:45:50.068Z,4.70
2017-08-05T15:48:17.923Z,4.30
2017-08-05T15:50:45.655Z,4.40
2017-08-05T15:53:14.800Z,3.97
2017-08-05T15:55:42.543Z,4.07
2017-08-05T15:58:11.981Z,4.00
2017-08-05T16:00:39.726Z,4.33
2017-08-05T16:03:07.495Z,3.60
2017-08-05T16:05:35.248Z,4.00
2017-08-05T16:08:03.743Z,4.27
2017-08-05T16:10:32.232Z,4.17
2017-08-05T16:13:00.772Z,4.03
2017-08-05T16:15:31.155Z,4.30
2017-08-05T16:17:58.893Z,4.10
2017-08-05T16:20:26.659Z,4.27
2017-08-05T16:22:54.416Z,3.80
2017-08-05T16:25:22.176Z,3.70
2017-08-05T16:27:51.513Z,3.77
2017-08-05T16:30:20.056Z,5.30
2017-08-05T16:32:48.047Z,3.77
2017-08-05T16:35:16.191Z,3.60
2017-08-05T16:37:43.928Z,3.93
2017-08-05T16:40:11.799Z,3.77
2017-08-05T16:42:40.363Z,3.80
2017-08-05T16:45:08.183Z,3.80
2017-08-05T16:47:38.137Z,3.80
2017-08-05T16:50:06.135Z,3.83
2017-08-05T16:52:33.892Z,4.43
2017-08-05T16:55:01.632Z,4.83
2017-08-05T16:57:29.455Z,5.10
2017-08-05T16:59:57.210Z,4.50
2017-08-05T17:02:25.988Z,4.33
2017-08-05T17:04:53.737Z,4.20
2017-08-05T17:07:21.580Z,7.73
2017-08-05T17:09:49.341Z,6.73
2017-08-05T17:12:17.088Z,6.70
2017-08-05T17:14:45.846Z,5.83
2017-08-05T17:17:13.579Z,6.03
2017-08-05T17:19:41.337Z,5.87
2017-08-05T17:22:09.082Z,5.20
2017-08-05T17:24:37.069Z,6.00
2017-08-05T17:27:04.828Z,4.73
2017-08-05T17:29:32.563Z,4.77
2017-08-05T17:32:01.130Z,4.63
2017-08-05T17:34:30.267Z,4.80
2017-08-05T17:36:58.387Z,4.80
2017-08-05T17:39:26.123Z,4.40
2017-08-05T17:41:53.877Z,4.30
2017-08-05T17:44:21.624Z,5.27
2017-08-05T17:46:49.330Z,3.83
2017-08-05T17:49:17.067Z,3.80
2017-08-05T17:51:44.849Z,3.87
2017-08-05T17:54:12.579Z,3.90
2017-08-05T17:56:40.339Z,3.87
2017-08-05T17:59:08.903Z,3.70
2017-08-05T18:01:37.583Z,3.87
2017-08-05T18:04:05.338Z,3.77
2017-08-05T18:06:33.110Z,3.67
2017-08-05T18:09:00.846Z,4.03
2017-08-05T18:11:28.592Z,3.30
2017-08-05T18:13:56.327Z,5.50
2017-08-05T18:16:24.086Z,4.87
2017-08-05T18:18:51.847Z,4.50
2017-08-05T18:21:19.604Z,5.67
2017-08-05T18:23:47.982Z,5.97
2017-08-05T18:26:15.896Z,5.63
2017-08-05T18:28:44.779Z,5.67
2017-08-05T18:31:13.066Z,5.07
2017-08-05T18:33:40.833Z,5.20
2017-08-05T18:36:08.786Z,4.40
2017-08-05T18:38:36.681Z,5.17
2017-08-05T18:41:04.462Z,4.73
2017-08-05T18:43:32.204Z,4.53
2017-08-05T18:45:59.963Z,4.20
2017-08-05T18:48:27.706Z,4.00
2017-08-05T18:50:55.434Z,4.37
2017-08-05T18:53:24.063Z,4.13
2017-08-05T18:55:51.852Z,6.23
2017-08-05T18:58:19.591Z,3.57
2017-08-05T19:00:47.358Z,3.90
2017-08-05T19:03:15.578Z,3.50
2017-08-05T19:05:44.080Z,3.40
2017-08-05T19:08:11.819Z,4.80
2017-08-05T19:10:39.916Z,4.33
2017-08-05T19:13:07.661Z,3.07
2017-08-05T19:15:35.366Z,3.60
2017-08-05T19:18:04.115Z,3.27
2017-08-05T19:20:31.859Z,3.03
2017-08-05T19:22:59.596Z,4.23
2017-08-05T19:25:27.327Z,3.53
2017-08-05T19:27:55.044Z,3.63
2017-08-05T19:30:22.809Z,2.93
2017-08-05T19:32:50.532Z,3.40
2017-08-05T19:35:18.317Z,4.33
2017-08-05T19:37:46.049Z,2.93
2017-08-05T19:40:14.627Z,3.27
2017-08-05T19:42:42.692Z,2.93
2017-08-05T19:45:10.830Z,4.80
2017-08-05T19:47:39.077Z,3.63
2017-08-05T19:50:07.123Z,5.30
2017-08-05T19:52:34.868Z,3.03
2017-08-05T19:55:02.595Z,3.10
2017-08-05T19:57:30.324Z,2.70
2017-08-05T19:59:59.207Z,2.87
2017-08-05T20:02:26.931Z,3.03
2017-08-05T20:04:55.425Z,2.73
2017-08-05T20:07:23.168Z,2.87
2017-08-05T20:09:52.116Z,3.07
2017-08-05T20:12:19.880Z,2.93
2017-08-05T20:14:47.639Z,3.97
2017-08-05T20:17:15.384Z,2.53
2017-08-05T20:19:43.213Z,3.00
2017-08-05T20:22:11.158Z,2.73
2017-08-05T20:24:38.880Z,3.50
2017-08-05T20:27:06.834Z,2.90
2017-08-05T20:29:34.602Z,3.30
2017-08-05T20:32:02.319Z,3.10
2017-08-05T20:34:30.152Z,2.87
2017-08-05T20:36:58.007Z,3.73
2017-08-05T20:39:27.462Z,2.67
2017-08-05T20:41:55.182Z,2.20
2017-08-05T20:44:22.932Z,1.67
2017-08-05T20:46:50.678Z,2.20
2017-08-05T20:49:18.406Z,2.30
2017-08-05T20:51:46.151Z,2.23
2017-08-05T20:54:13.971Z,2.90
2017-08-05T20:56:41.716Z,2.50
2017-08-05T20:59:09.461Z,2.30
2017-08-05T21:01:37.201Z,1.90
2017-08-05T21:04:04.924Z,2.80
2017-08-05T21:06:32.646Z,2.57
2017-08-05T21:09:00.354Z,2.80
2017-08-05T21:11:28.620Z,2.07
2017-08-05T21:13:57.136Z,2.30
2017-08-05T21:16:24.859Z,2.50
2017-08-05T21:18:52.605Z,2.17
2017-08-05T21:21:20.332Z,3.73
2017-08-05T21:23:48.075Z,3.20
2017-08-05T21:26:16.598Z,2.27
2017-08-05T21:28:44.323Z,3.50
2017-08-05T21:31:12.059Z,4.00
2017-08-05T21:33:41.154Z,4.50
2017-08-05T21:36:08.880Z,2.90
2017-08-05T21:38:36.616Z,3.87
2017-08-05T21:41:04.383Z,3.20
2017-08-05T21:43:32.232Z,2.50
2017-08-05T21:45:59.975Z,3.40
2017-08-05T21:48:27.742Z,3.10
2017-08-05T21:50:55.516Z,2.90
2017-08-05T21:53:23.296Z,4.67
2017-08-05T21:55:51.034Z,3.20
2017-08-05T21:58:18.759Z,4.30
2017-08-05T22:00:46.580Z,2.63
2017-08-05T22:03:14.326Z,3.17
2017-08-05T22:05:43.051Z,2.30
2017-08-05T22:08:10.786Z,2.27
2017-08-05T22:10:38.501Z,3.30
2017-08-05T22:13:06.225Z,3.30
2017-08-05T22:15:33.936Z,2.90
2017-08-05T22:18:01.672Z,2.30
2017-08-05T22:20:29.384Z,3.30
2017-08-05T22:22:57.246Z,2.70
2017-08-05T22:25:24.982Z,2.33
2017-08-05T22:27:52.719Z,2.20
2017-08-05T22:30:20.446Z,2.53
2017-08-05T22:32:48.174Z,3.13
2017-08-05T22:35:15.935Z,2.27
2017-08-05T22:37:43.677Z,3.33
2017-08-05T22:40:11.402Z,2.90
2017-08-05T22:42:39.147Z,3.50
2017-08-05T22:45:06.859Z,2.90
2017-08-05T22:47:35.542Z,3.10
2017-08-05T22:50:03.283Z,3.40
2017-08-05T22:52:32.732Z,3.90
2017-08-05T22:55:00.458Z,3.97
2017-08-05T22:57:28.201Z,10.43
2017-08-05T22:59:55.920Z,4.60
2017-08-05T23:02:23.763Z,3.33
2017-08-05T23:04:51.515Z,3.37
2017-08-05T23:07:19.260Z,3.73
2017-08-05T23:09:48.026Z,3.77
2017-08-05T23:12:15.763Z,3.87
2017-08-05T23:14:43.511Z,3.20
2017-08-05T23:17:11.244Z,3.50
2017-08-05T23:19:38.951Z,3.43
2017-08-05T23:22:06.790Z,3.30
2017-08-05T23:24:34.551Z,3.30
2017-08-05T23:27:02.407Z,3.60
2017-08-05T23:29:30.123Z,3.93
2017-08-05T23:31:57.863Z,3.57
2017-08-05T23:34:25.640Z,4.03
2017-08-05T23:36:53.357Z,3.20
2017-08-05T23:39:21.112Z,4.63
2017-08-05T23:41:49.799Z,3.30
2017-08-05T23:44:17.544Z,4.47
2017-08-05T23:46:45.279Z,3.00
2017-08-05T23:49:13.007Z,2.30
2017-08-05T23:51:42.150Z,2.50
2017-08-05T23:54:09.869Z,2.77
2017-08-05T23:56:37.628Z,3.13
2017-08-05T23:59:05.339Z,2.80
